createdAt,value
2022-10-18T00:00:06.372Z,10.12
2022-10-18T00:02:33.118Z,10.11
2022-10-18T00:04:59.783Z,10.24
2022-10-18T00:07:26.396Z,10.28
2022-10-18T00:09:53.037Z,10.18
2022-10-18T00:12:19.764Z,10.36
2022-10-18T00:14:49.725Z,10.39
2022-10-18T00:17:16.409Z,10.39
2022-10-18T00:19:43.023Z,10.44
2022-10-18T00:22:09.653Z,10.37
2022-10-18T00:24:36.255Z,10.35
2022-10-18T00:27:02.883Z,10.35
2022-10-18T00:29:29.438Z,10.40
2022-10-18T00:31:56.107Z,10.43
2022-10-18T00:34:22.719Z,10.32
2022-10-18T00:36:49.315Z,10.45
2022-10-18T00:39:18.482Z,10.23
2022-10-18T00:41:46.167Z,10.30
2022-10-18T00:44:12.723Z,10.23
2022-10-18T00:46:42.497Z,10.16
2022-10-18T00:49:16.167Z,9.98
2022-10-18T00:51:45.044Z,9.95
2022-10-18T00:54:13.587Z,9.89
2022-10-18T00:56:40.470Z,9.79
2022-10-18T00:59:08.038Z,9.71
2022-10-18T01:01:34.678Z,9.68
2022-10-18T01:04:01.460Z,9.59
2022-10-18T01:06:29.397Z,9.44
2022-10-18T01:09:18.502Z,9.52
2022-10-18T01:11:54.112Z,9.42
2022-10-18T01:14:30.476Z,9.37
2022-10-18T01:17:08.775Z,9.26
2022-10-18T01:20:03.430Z,9.23
2022-10-18T01:22:35.654Z,9.20
2022-10-18T01:25:14.305Z,9.22
2022-10-18T01:28:18.441Z,9.22
2022-10-18T01:31:00.226Z,9.20
2022-10-18T01:33:38.684Z,9.18
2022-10-18T01:36:37.304Z,9.18
2022-10-18T01:39:16.365Z,9.17
2022-10-18T01:41:45.668Z,9.22
2022-10-18T01:44:19.611Z,9.24
2022-10-18T01:46:47.205Z,9.21
2022-10-18T01:49:14.415Z,9.18
2022-10-18T01:51:41.057Z,9.23
2022-10-18T01:54:08.839Z,9.17
2022-10-18T01:56:38.533Z,9.23
2022-10-18T01:59:24.903Z,9.22
2022-10-18T02:02:14.716Z,9.10
2022-10-18T02:04:50.353Z,9.12
2022-10-18T02:07:28.227Z,9.03
2022-10-18T02:12:44.493Z,8.89
2022-10-18T02:15:16.685Z,8.96
2022-10-18T02:17:45.402Z,8.95
2022-10-18T02:20:16.095Z,8.48
2022-10-18T02:22:46.037Z,8.85
2022-10-18T02:25:21.469Z,8.85
2022-10-18T02:27:48.279Z,8.72
2022-10-18T02:30:15.820Z,8.87
2022-10-18T02:32:58.992Z,8.82
2022-10-18T02:35:31.440Z,8.83
2022-10-18T02:37:59.239Z,8.84
2022-10-18T02:40:26.753Z,8.83
2022-10-18T02:42:58.308Z,8.47
2022-10-18T02:45:26.406Z,8.75
2022-10-18T02:47:53.363Z,8.58
2022-10-18T02:50:19.977Z,8.66
2022-10-18T02:52:46.632Z,8.60
2022-10-18T02:55:13.338Z,8.49
2022-10-18T02:57:40.005Z,8.41
2022-10-18T03:00:07.279Z,8.33
2022-10-18T03:02:34.253Z,8.34
2022-10-18T03:05:00.988Z,8.30
2022-10-18T03:07:27.736Z,8.38
2022-10-18T03:09:54.343Z,8.37
2022-10-18T03:12:20.910Z,8.39
2022-10-18T03:14:47.525Z,8.39
2022-10-18T03:17:14.306Z,8.44
2022-10-18T03:19:40.948Z,8.41
2022-10-18T03:22:07.698Z,8.36
2022-10-18T03:24:34.279Z,8.40
2022-10-18T03:27:00.889Z,8.31
2022-10-18T03:29:27.543Z,8.29
2022-10-18T03:31:54.171Z,8.27
2022-10-18T03:34:20.769Z,8.29
2022-10-18T03:36:47.409Z,8.34
2022-10-18T03:39:14.189Z,8.43
2022-10-18T03:41:40.827Z,8.37
2022-10-18T03:44:07.609Z,8.34
2022-10-18T03:46:34.201Z,8.16
2022-10-18T03:49:00.809Z,8.17
2022-10-18T03:51:27.488Z,8.07
2022-10-18T03:53:54.072Z,7.87
2022-10-18T03:56:20.633Z,7.95
2022-10-18T03:58:47.293Z,7.96
2022-10-18T04:01:13.930Z,7.96
2022-10-18T04:03:40.624Z,7.74
2022-10-18T04:06:08.272Z,7.88
2022-10-18T04:08:34.894Z,7.87
2022-10-18T04:11:08.390Z,7.93
2022-10-18T04:13:35.662Z,7.93
2022-10-18T04:16:02.289Z,7.95
2022-10-18T04:18:29.321Z,7.84
2022-10-18T04:20:55.902Z,7.87
2022-10-18T04:23:22.560Z,7.88
2022-10-18T04:25:49.176Z,7.89
2022-10-18T04:28:15.798Z,7.86
2022-10-18T04:30:42.540Z,7.91
2022-10-18T04:33:09.145Z,7.97
2022-10-18T04:35:35.713Z,7.96
2022-10-18T04:38:02.304Z,7.98
2022-10-18T04:40:28.908Z,8.16
2022-10-18T04:42:56.028Z,8.14
2022-10-18T04:45:22.641Z,8.19
2022-10-18T04:47:49.278Z,8.23
2022-10-18T04:50:16.033Z,8.26
2022-10-18T04:52:42.653Z,8.15
2022-10-18T04:55:09.638Z,8.26
2022-10-18T04:57:36.325Z,8.25
2022-10-18T05:00:03.853Z,8.13
2022-10-18T05:02:31.050Z,8.31
2022-10-18T05:04:57.983Z,8.34
2022-10-18T05:07:24.569Z,8.36
2022-10-18T05:09:51.221Z,8.48
2022-10-18T05:12:17.875Z,8.48
2022-10-18T05:14:44.509Z,8.47
2022-10-18T05:17:11.191Z,8.60
2022-10-18T05:19:37.834Z,8.65
2022-10-18T05:22:04.459Z,8.49
2022-10-18T05:24:31.171Z,8.71
2022-10-18T05:26:58.332Z,8.78
2022-10-18T05:29:25.243Z,8.83
2022-10-18T05:31:52.194Z,8.95
2022-10-18T05:34:20.683Z,9.03
2022-10-18T05:36:49.531Z,9.05
2022-10-18T05:39:16.152Z,9.04
2022-10-18T05:41:42.820Z,9.04
2022-10-18T05:44:09.739Z,8.92
2022-10-18T05:46:36.456Z,8.96
2022-10-18T05:49:03.130Z,9.04
2022-10-18T05:51:29.768Z,9.08
2022-10-18T05:53:56.422Z,9.17
2022-10-18T05:56:23.173Z,9.30
2022-10-18T05:58:52.035Z,9.26
2022-10-18T06:01:18.876Z,9.32
2022-10-18T06:03:45.529Z,9.41
2022-10-18T06:06:13.375Z,9.25
2022-10-18T06:08:41.627Z,9.62
2022-10-18T06:11:09.162Z,9.65
2022-10-18T06:13:41.058Z,9.67
2022-10-18T06:16:08.310Z,9.68
2022-10-18T06:18:34.982Z,9.84
2022-10-18T06:21:01.720Z,9.97
2022-10-18T06:23:28.818Z,10.11
2022-10-18T06:26:13.580Z,10.18
2022-10-18T06:28:40.255Z,10.34
2022-10-18T06:31:07.012Z,10.37
2022-10-18T06:33:35.498Z,10.58
2022-10-18T06:36:08.385Z,10.92
2022-10-18T06:38:35.842Z,11.24
2022-10-18T06:41:03.660Z,11.15
2022-10-18T06:43:30.320Z,11.70
2022-10-18T06:45:57.227Z,11.94
2022-10-18T06:48:24.651Z,11.90
2022-10-18T06:50:59.953Z,12.17
2022-10-18T06:53:29.146Z,12.16
2022-10-18T06:56:03.886Z,12.14
2022-10-18T06:58:31.568Z,12.09
2022-10-18T07:00:58.887Z,12.14
2022-10-18T07:03:26.404Z,12.30
2022-10-18T07:05:53.307Z,12.50
2022-10-18T07:08:19.951Z,12.89
2022-10-18T07:10:53.602Z,12.90
2022-10-18T07:13:32.083Z,12.84
2022-10-18T07:16:18.391Z,12.64
2022-10-18T07:18:52.626Z,12.83
2022-10-18T07:21:20.940Z,12.83
2022-10-18T07:23:47.999Z,13.05
2022-10-18T07:26:38.614Z,13.03
2022-10-18T07:29:11.129Z,13.07
2022-10-18T07:31:41.161Z,12.90
2022-10-18T07:34:11.692Z,13.17
2022-10-18T07:36:38.967Z,13.13
2022-10-18T07:39:05.642Z,13.42
2022-10-18T07:41:33.998Z,13.50
2022-10-18T07:44:01.481Z,13.85
2022-10-18T07:46:28.206Z,13.95
2022-10-18T07:48:54.920Z,14.24
2022-10-18T07:51:22.203Z,14.46
2022-10-18T07:53:49.079Z,14.69
2022-10-18T07:56:20.793Z,15.00
2022-10-18T07:58:52.610Z,15.14
2022-10-18T08:01:20.569Z,15.21
2022-10-18T08:03:47.270Z,15.49
2022-10-18T08:06:16.737Z,15.78
2022-10-18T08:08:44.313Z,16.09
2022-10-18T08:11:15.070Z,16.49
2022-10-18T08:13:42.605Z,16.58
2022-10-18T08:16:12.349Z,16.70
2022-10-18T08:18:39.085Z,17.05
2022-10-18T08:21:08.231Z,17.26
2022-10-18T08:23:35.071Z,17.32
2022-10-18T08:26:03.681Z,17.48
2022-10-18T08:28:30.551Z,17.76
2022-10-18T08:30:57.339Z,17.95
2022-10-18T08:33:24.042Z,18.10
2022-10-18T08:35:58.599Z,18.21
2022-10-18T08:38:25.788Z,18.39
2022-10-18T08:40:52.717Z,18.74
2022-10-18T08:44:00.200Z,18.93
2022-10-18T08:46:29.166Z,18.81
2022-10-18T08:48:57.030Z,18.68
2022-10-18T08:51:34.521Z,18.97
2022-10-18T08:54:11.066Z,19.02
2022-10-18T08:56:40.951Z,19.02
2022-10-18T08:59:12.027Z,18.99
2022-10-18T09:01:57.051Z,19.12
2022-10-18T09:04:54.553Z,19.43
2022-10-18T09:07:51.787Z,19.47
2022-10-18T09:10:36.806Z,19.65
2022-10-18T09:13:27.733Z,19.85
2022-10-18T09:15:59.944Z,19.83
2022-10-18T09:18:41.813Z,19.86
2022-10-18T09:21:38.297Z,19.99
2022-10-18T09:24:22.123Z,20.19
2022-10-18T09:26:54.492Z,20.17
2022-10-18T09:29:41.114Z,20.06
2022-10-18T09:32:26.557Z,20.34
2022-10-18T09:35:06.383Z,20.22
2022-10-18T09:37:35.021Z,20.69
2022-10-18T09:40:16.597Z,20.92
2022-10-18T09:42:55.895Z,21.32
2022-10-18T09:45:25.470Z,20.91
2022-10-18T09:48:04.867Z,21.24
2022-10-18T09:51:00.897Z,21.43
2022-10-18T09:53:44.998Z,21.59
2022-10-18T09:56:18.336Z,21.64
2022-10-18T09:58:47.661Z,21.29
2022-10-18T10:01:23.061Z,21.16
2022-10-18T10:03:50.027Z,20.94
2022-10-18T10:06:28.972Z,21.26
2022-10-18T10:08:58.718Z,21.04
2022-10-18T10:11:38.279Z,20.72
2022-10-18T10:14:19.632Z,21.24
2022-10-18T10:16:51.847Z,21.29
2022-10-18T10:19:24.283Z,20.91
2022-10-18T10:21:55.809Z,20.85
2022-10-18T10:25:00.720Z,21.33
2022-10-18T10:27:43.665Z,21.50
2022-10-18T10:30:32.168Z,21.48
2022-10-18T10:32:59.129Z,21.74
2022-10-18T10:35:48.999Z,21.36
2022-10-18T10:38:25.717Z,21.11
2022-10-18T10:40:52.521Z,21.20
2022-10-18T10:43:40.458Z,21.51
2022-10-18T10:46:13.426Z,21.34
2022-10-18T10:49:04.462Z,21.23
2022-10-18T10:51:41.447Z,21.57
2022-10-18T10:54:21.986Z,22.21
2022-10-18T10:57:04.965Z,22.22
2022-10-18T10:59:49.275Z,21.73
2022-10-18T11:02:17.769Z,21.94
2022-10-18T11:04:55.611Z,22.25
2022-10-18T11:07:35.779Z,22.35
2022-10-18T11:10:11.728Z,22.66
2022-10-18T11:12:43.165Z,22.45
2022-10-18T11:15:36.057Z,22.71
2022-10-18T11:18:05.611Z,22.43
2022-10-18T11:20:43.368Z,22.64
2022-10-18T11:23:17.607Z,22.65
2022-10-18T11:26:07.564Z,22.60
2022-10-18T11:28:43.128Z,22.90
2022-10-18T11:31:30.133Z,22.76
2022-10-18T11:34:24.645Z,22.57
2022-10-18T11:37:34.534Z,22.51
2022-10-18T11:40:20.224Z,22.57
2022-10-18T11:42:59.146Z,23.05
2022-10-18T11:45:34.748Z,22.80
2022-10-18T11:48:22.683Z,22.46
2022-10-18T11:51:01.600Z,22.80
2022-10-18T11:54:14.623Z,23.14
2022-10-18T11:56:43.941Z,23.14
2022-10-18T11:59:32.783Z,22.51
2022-10-18T12:02:36.385Z,22.71
2022-10-18T12:05:22.683Z,22.80
2022-10-18T12:07:58.814Z,23.64
2022-10-18T12:10:39.280Z,23.47
2022-10-18T12:13:23.081Z,23.37
2022-10-18T12:15:51.539Z,23.95
2022-10-18T12:18:23.458Z,23.43
2022-10-18T12:20:54.565Z,23.29
2022-10-18T12:23:30.192Z,23.16
2022-10-18T12:26:04.048Z,23.44
2022-10-18T12:28:55.620Z,23.38
2022-10-18T12:31:28.084Z,23.24
2022-10-18T12:34:09.759Z,23.13
2022-10-18T12:36:59.706Z,23.01
2022-10-18T12:39:43.679Z,23.17
2022-10-18T12:42:23.998Z,23.23
2022-10-18T12:45:03.674Z,23.39
2022-10-18T12:47:31.360Z,23.36
2022-10-18T12:50:01.486Z,23.37
2022-10-18T12:52:30.481Z,23.23
2022-10-18T12:55:18.387Z,23.09
2022-10-18T12:57:54.185Z,23.04
2022-10-18T13:00:29.518Z,22.86
2022-10-18T13:03:16.592Z,23.10
2022-10-18T13:05:54.986Z,22.61
2022-10-18T13:08:28.165Z,22.70
2022-10-18T13:11:12.929Z,22.85
2022-10-18T13:13:51.623Z,23.19
2022-10-18T13:16:39.481Z,23.12
2022-10-18T13:19:25.039Z,22.91
2022-10-18T13:22:32.901Z,22.99
2022-10-18T13:25:19.399Z,22.92
2022-10-18T13:28:00.363Z,23.01
2022-10-18T13:30:45.485Z,22.92
2022-10-18T13:33:33.029Z,23.06
2022-10-18T13:36:04.681Z,23.07
2022-10-18T13:38:43.094Z,22.94
2022-10-18T13:41:31.332Z,22.61
2022-10-18T13:44:25.064Z,22.62
2022-10-18T13:46:51.671Z,22.39
2022-10-18T13:49:38.581Z,22.25
2022-10-18T13:52:27.089Z,22.24
2022-10-18T13:55:14.858Z,22.26
2022-10-18T13:57:47.484Z,21.95
2022-10-18T14:00:32.485Z,22.00
2022-10-18T14:03:02.274Z,21.76
2022-10-18T14:05:52.137Z,21.85
2022-10-18T14:08:28.974Z,21.73
2022-10-18T14:11:04.130Z,21.59
2022-10-18T14:13:52.530Z,21.56
2022-10-18T14:16:32.056Z,21.53
2022-10-18T14:19:09.126Z,21.32
2022-10-18T14:21:41.616Z,21.29
2022-10-18T14:24:20.016Z,21.21
2022-10-18T14:26:46.878Z,20.98
2022-10-18T14:29:19.675Z,21.00
2022-10-18T14:31:53.500Z,20.81
2022-10-18T14:34:20.826Z,20.55
2022-10-18T14:36:49.614Z,20.67
2022-10-18T14:39:27.474Z,20.69
2022-10-18T14:41:56.006Z,20.56
2022-10-18T14:44:32.655Z,20.62
2022-10-18T14:47:14.746Z,20.38
2022-10-18T14:49:46.402Z,20.23
2022-10-18T14:52:17.177Z,20.19
2022-10-18T14:54:44.346Z,20.21
2022-10-18T14:57:23.609Z,20.08
2022-10-18T14:59:58.251Z,19.99
2022-10-18T15:02:27.531Z,19.87
2022-10-18T15:04:59.809Z,19.86
2022-10-18T15:07:31.153Z,19.58
2022-10-18T15:10:00.828Z,19.72
2022-10-18T15:12:36.886Z,19.73
2022-10-18T15:15:18.569Z,19.58
2022-10-18T15:17:47.016Z,19.54
2022-10-18T15:20:25.340Z,19.40
2022-10-18T15:22:53.595Z,19.36
2022-10-18T15:25:31.793Z,19.24
2022-10-18T15:28:00.411Z,19.10
2022-10-18T15:30:36.903Z,19.13
2022-10-18T15:33:10.287Z,18.84
2022-10-18T15:35:39.195Z,18.87
2022-10-18T15:38:24.440Z,18.80
2022-10-18T15:40:51.514Z,18.66
2022-10-18T15:43:24.323Z,18.67
2022-10-18T15:46:03.249Z,18.54
2022-10-18T15:48:32.908Z,18.32
2022-10-18T15:51:04.948Z,18.03
2022-10-18T15:53:34.950Z,18.37
2022-10-18T15:56:04.591Z,18.35
2022-10-18T15:58:44.026Z,18.26
2022-10-18T16:01:17.384Z,18.16
2022-10-18T16:03:46.241Z,18.07
2022-10-18T16:06:17.380Z,17.98
2022-10-18T16:08:52.946Z,17.94
2022-10-18T16:11:24.889Z,17.87
2022-10-18T16:13:55.173Z,17.73
2022-10-18T16:16:27.136Z,17.59
2022-10-18T16:18:54.435Z,17.64
2022-10-18T16:21:27.079Z,17.62
2022-10-18T16:23:54.251Z,17.51
2022-10-18T16:26:22.231Z,17.28
2022-10-18T16:28:49.741Z,17.29
2022-10-18T16:31:22.374Z,17.28
2022-10-18T16:33:50.120Z,17.19
2022-10-18T16:36:18.873Z,17.13
2022-10-18T16:38:46.353Z,17.05
2022-10-18T16:41:14.711Z,17.00
2022-10-18T16:43:43.200Z,16.94
2022-10-18T16:46:17.507Z,16.96
2022-10-18T16:48:44.490Z,16.81
2022-10-18T16:51:12.101Z,16.70
2022-10-18T16:53:38.986Z,16.58
2022-10-18T16:56:11.892Z,16.59
2022-10-18T16:58:38.577Z,16.49
2022-10-18T17:01:08.115Z,16.61
2022-10-18T17:03:35.800Z,16.61
2022-10-18T17:06:02.498Z,16.58
2022-10-18T17:08:29.555Z,16.58
2022-10-18T17:10:58.280Z,16.58
2022-10-18T17:13:26.603Z,16.59
2022-10-18T17:15:53.578Z,16.43
2022-10-18T17:18:23.593Z,16.46
2022-10-18T17:20:50.586Z,16.41
2022-10-18T17:23:17.358Z,16.30
2022-10-18T17:25:57.552Z,16.21
2022-10-18T17:28:31.785Z,16.31
2022-10-18T17:30:58.467Z,16.11
2022-10-18T17:33:25.183Z,16.23
2022-10-18T17:35:52.069Z,16.11
2022-10-18T17:38:18.750Z,16.08
2022-10-18T17:40:45.423Z,16.02
2022-10-18T17:43:13.754Z,16.02
2022-10-18T17:45:54.146Z,15.96
2022-10-18T17:48:21.401Z,15.94
2022-10-18T17:50:48.012Z,15.91
2022-10-18T17:53:14.777Z,15.76
2022-10-18T17:55:41.479Z,15.71
2022-10-18T17:58:08.397Z,15.69
2022-10-18T18:00:35.332Z,15.71
2022-10-18T18:03:02.506Z,15.82
2022-10-18T18:05:33.886Z,15.72
2022-10-18T18:08:03.864Z,15.63
2022-10-18T18:10:33.466Z,15.64
2022-10-18T18:13:00.665Z,15.55
2022-10-18T18:15:27.419Z,15.43
2022-10-18T18:17:57.858Z,15.50
2022-10-18T18:20:26.311Z,14.99
2022-10-18T18:22:53.412Z,15.18
2022-10-18T18:25:20.158Z,15.25
2022-10-18T18:27:47.444Z,15.33
2022-10-18T18:30:15.516Z,15.23
2022-10-18T18:32:42.202Z,15.27
2022-10-18T18:35:08.871Z,15.25
2022-10-18T18:37:35.536Z,15.19
2022-10-18T18:40:02.193Z,15.23
2022-10-18T18:42:28.865Z,15.08
2022-10-18T18:44:55.487Z,14.99
2022-10-18T18:47:23.642Z,15.03
2022-10-18T18:49:51.654Z,14.82
2022-10-18T18:52:18.312Z,14.73
2022-10-18T18:54:45.149Z,14.61
2022-10-18T18:57:11.767Z,14.57
2022-10-18T18:59:38.454Z,14.48
2022-10-18T19:02:05.133Z,13.85
2022-10-18T19:04:31.809Z,13.51
2022-10-18T19:06:58.450Z,13.52
2022-10-18T19:09:27.232Z,13.57
2022-10-18T19:11:56.278Z,13.23
2022-10-18T19:14:25.013Z,13.48
2022-10-18T19:17:01.705Z,13.20
2022-10-18T19:19:30.076Z,13.56
2022-10-18T19:22:02.171Z,13.77
2022-10-18T19:24:32.634Z,13.62
2022-10-18T19:27:02.477Z,13.48
2022-10-18T19:29:32.450Z,13.31
2022-10-18T19:32:01.560Z,13.34
2022-10-18T19:34:30.037Z,13.17
2022-10-18T19:36:57.153Z,13.08
2022-10-18T19:39:29.909Z,13.03
2022-10-18T19:41:58.491Z,13.29
2022-10-18T19:44:28.725Z,13.32
2022-10-18T19:46:55.607Z,13.17
2022-10-18T19:49:22.307Z,13.22
2022-10-18T19:51:49.367Z,13.18
2022-10-18T19:54:16.647Z,13.04
2022-10-18T19:56:43.680Z,13.12
2022-10-18T19:59:11.474Z,13.21
2022-10-18T20:01:38.636Z,13.03
2022-10-18T20:04:06.594Z,12.88
2022-10-18T20:06:34.039Z,12.75
2022-10-18T20:09:01.358Z,12.57
2022-10-18T20:11:29.120Z,12.14
2022-10-18T20:13:56.742Z,12.53
2022-10-18T20:16:28.373Z,12.57
2022-10-18T20:19:04.115Z,12.48
2022-10-18T20:21:33.131Z,12.67
2022-10-18T20:23:59.790Z,12.66
2022-10-18T20:26:26.548Z,12.64
2022-10-18T20:28:58.840Z,12.55
2022-10-18T20:31:30.522Z,12.51
2022-10-18T20:33:59.755Z,12.62
2022-10-18T20:36:27.714Z,12.55
2022-10-18T20:38:55.039Z,12.52
2022-10-18T20:41:42.102Z,12.56
2022-10-18T20:44:13.518Z,12.24
2022-10-18T20:46:40.940Z,12.12
2022-10-18T20:49:10.450Z,12.17
2022-10-18T20:51:37.106Z,12.25
2022-10-18T20:54:07.009Z,12.23
2022-10-18T20:56:35.483Z,11.93
2022-10-18T20:59:03.165Z,12.00
2022-10-18T21:01:32.021Z,11.84
2022-10-18T21:04:01.276Z,11.54
2022-10-18T21:06:46.457Z,11.40
2022-10-18T21:09:15.831Z,11.20
2022-10-18T21:11:45.441Z,11.16
2022-10-18T21:14:20.573Z,11.12
2022-10-18T21:16:48.007Z,11.09
2022-10-18T21:19:16.225Z,10.99
2022-10-18T21:21:44.110Z,10.98
2022-10-18T21:24:11.442Z,10.86
2022-10-18T21:26:38.618Z,10.75
2022-10-18T21:29:06.637Z,10.74
2022-10-18T21:31:36.427Z,10.55
2022-10-18T21:34:06.421Z,10.65
2022-10-18T21:36:37.149Z,10.68
2022-10-18T21:39:06.254Z,10.57
2022-10-18T21:41:32.924Z,10.38
2022-10-18T21:44:00.096Z,10.46
2022-10-18T21:46:27.146Z,10.52
2022-10-18T21:48:55.677Z,10.52
2022-10-18T21:51:24.754Z,10.43
2022-10-18T21:53:53.973Z,10.43
2022-10-18T21:56:31.940Z,10.44
2022-10-18T21:58:59.429Z,10.26
2022-10-18T22:01:27.346Z,10.35
2022-10-18T22:03:55.992Z,10.14
2022-10-18T22:06:23.456Z,10.34
2022-10-18T22:08:56.113Z,10.22
2022-10-18T22:11:25.933Z,9.93
2022-10-18T22:13:53.393Z,10.04
2022-10-18T22:16:20.550Z,9.95
2022-10-18T22:18:49.499Z,10.00
2022-10-18T22:21:18.022Z,10.05
2022-10-18T22:23:50.297Z,9.92
2022-10-18T22:26:18.263Z,10.07
2022-10-18T22:28:46.081Z,10.06
2022-10-18T22:31:24.479Z,9.93
2022-10-18T22:33:58.974Z,9.94
2022-10-18T22:36:26.480Z,9.91
2022-10-18T22:38:53.426Z,9.74
2022-10-18T22:41:20.107Z,9.70
2022-10-18T22:43:47.826Z,9.67
2022-10-18T22:46:15.287Z,9.64
2022-10-18T22:48:42.973Z,9.65
2022-10-18T22:51:10.232Z,9.51
2022-10-18T22:53:37.856Z,9.61
2022-10-18T22:56:05.347Z,9.61
2022-10-18T22:58:32.202Z,9.49
2022-10-18T23:01:03.000Z,9.51
2022-10-18T23:03:30.204Z,9.36
2022-10-18T23:05:58.117Z,9.42
2022-10-18T23:08:25.058Z,9.28
2022-10-18T23:10:58.945Z,9.27
2022-10-18T23:13:29.235Z,9.45
2022-10-18T23:16:04.380Z,9.47
2022-10-18T23:18:32.337Z,9.43
2022-10-18T23:21:07.721Z,9.39
2022-10-18T23:23:35.982Z,9.06
2022-10-18T23:26:07.063Z,9.23
2022-10-18T23:28:36.711Z,9.01
2022-10-18T23:31:08.422Z,9.09
2022-10-18T23:33:35.325Z,9.28
2022-10-18T23:36:01.992Z,9.31
2022-10-18T23:38:30.559Z,9.26
2022-10-18T23:40:57.895Z,9.09
2022-10-18T23:43:24.674Z,9.03
2022-10-18T23:45:51.592Z,8.91
2022-10-18T23:48:18.196Z,9.03
2022-10-18T23:50:44.953Z,8.92
2022-10-18T23:53:11.561Z,9.03
2022-10-18T23:55:38.217Z,9.05
2022-10-18T23:58:04.867Z,9.06
